Weather at Bibione Airfield

Public forecast

Using degrees Celsius for public forecast. Weather courtesy of forecast.io.

Closest aviation weather report (METAR) to Bibione Airfield

Closest report is Udine-Rivolto Air Base, 18.6 nm (34.4 km) N.

2024/07/19 16:55 (retrieved 1 hour ago)

LIPI 191655Z 25003KT 9999 VCSH FEW045CB SCT070 32/22 Q1011 RMK BKN BKN160 VIS MIN 9999 WIND THR06 VRB02KT WIND THR24 07006KT BLU

Closest aviation forecast (TAF) to Bibione Airfield

Closest forecast is Trieste–Friuli Venezia Giulia Airport, 20.5 nm (37.9 km) ENE.

2024/07/19 18:00 (retrieved 3 minutes ago)

TAF LIPQ 191700Z 1918/2018 VRB05KT 9999 FEW050 TEMPO 1918/2009 TSRA BKN014 BECMG 1920/1922 36013KT BECMG 2008/2010 VRB05KT BECMG 2008/2010 08010KT TEMPO 2009/2013 SHRA